createdAt,value
2023-05-22T00:00:08.921Z,7.88
2023-05-22T00:02:43.852Z,6.97
2023-05-22T00:05:13.306Z,6.90
2023-05-22T00:07:43.294Z,8.18
2023-05-22T00:10:11.408Z,7.63
2023-05-22T00:12:38.955Z,8.70
2023-05-22T00:15:07.206Z,8.63
2023-05-22T00:17:34.845Z,7.90
2023-05-22T00:20:10.713Z,9.35
2023-05-22T00:22:39.079Z,9.10
2023-05-22T00:25:07.501Z,9.27
2023-05-22T00:27:35.131Z,9.32
2023-05-22T00:30:02.800Z,8.38
2023-05-22T00:32:30.383Z,8.60
2023-05-22T00:34:58.176Z,11.23
2023-05-22T00:37:26.017Z,7.78
2023-05-22T00:39:53.602Z,8.80
2023-05-22T00:42:21.320Z,8.35
2023-05-22T00:44:49.002Z,8.65
2023-05-22T00:47:16.621Z,8.70
2023-05-22T00:49:44.513Z,7.32
2023-05-22T00:52:14.613Z,7.93
2023-05-22T00:54:43.336Z,8.85
2023-05-22T00:57:11.031Z,9.35
2023-05-22T00:59:38.733Z,9.93
2023-05-22T01:02:06.758Z,7.85
2023-05-22T01:04:35.315Z,8.38
2023-05-22T01:07:03.105Z,6.97
2023-05-22T01:09:30.782Z,7.03
2023-05-22T01:12:07.248Z,6.10
2023-05-22T01:15:11.204Z,5.93
2023-05-22T01:18:11.297Z,6.03
2023-05-22T01:20:53.060Z,6.05
2023-05-22T01:23:45.686Z,5.53
2023-05-22T01:26:22.573Z,4.75
2023-05-22T01:28:50.217Z,5.70
2023-05-22T01:31:22.441Z,4.45
2023-05-22T01:33:53.418Z,4.45
2023-05-22T01:36:23.349Z,4.85
2023-05-22T01:38:52.895Z,4.32
2023-05-22T01:41:21.657Z,4.20
2023-05-22T01:43:49.389Z,3.67
2023-05-22T01:46:16.934Z,4.10
2023-05-22T01:48:44.572Z,4.13
2023-05-22T01:51:44.580Z,4.80
2023-05-22T01:54:18.318Z,4.78
2023-05-22T01:57:14.885Z,4.63
2023-05-22T02:00:02.511Z,3.75
2023-05-22T02:02:32.623Z,4.30
2023-05-22T02:05:03.922Z,4.15
2023-05-22T02:07:34.409Z,3.42
2023-05-22T02:10:03.146Z,3.83
2023-05-22T02:12:31.109Z,4.40
2023-05-22T02:14:58.814Z,3.80
2023-05-22T02:17:28.297Z,3.63
2023-05-22T02:19:55.900Z,3.08
2023-05-22T02:22:23.430Z,3.50
2023-05-22T02:24:51.514Z,3.33
2023-05-22T02:27:19.053Z,4.00
2023-05-22T02:29:46.683Z,3.80
2023-05-22T02:32:14.279Z,4.40
2023-05-22T02:34:42.270Z,4.22
2023-05-22T02:37:09.717Z,3.92
2023-05-22T02:39:37.249Z,3.65
2023-05-22T02:42:05.961Z,3.55
2023-05-22T02:44:33.506Z,3.10
2023-05-22T02:47:01.128Z,3.80
2023-05-22T02:49:28.755Z,4.15
2023-05-22T02:51:56.241Z,3.85
2023-05-22T02:54:23.777Z,4.55
2023-05-22T02:56:51.281Z,3.60
2023-05-22T02:59:18.788Z,3.55
2023-05-22T03:01:48.497Z,3.50
2023-05-22T03:04:16.262Z,3.58
2023-05-22T03:06:45.642Z,3.90
2023-05-22T03:09:13.266Z,3.25
2023-05-22T03:11:40.828Z,3.50
2023-05-22T03:14:08.836Z,4.00
2023-05-22T03:16:36.392Z,3.40
2023-05-22T03:19:14.874Z,3.63
2023-05-22T03:21:44.605Z,3.67
2023-05-22T03:24:15.356Z,3.53
2023-05-22T03:26:43.935Z,3.50
2023-05-22T03:29:17.863Z,3.78
2023-05-22T03:31:45.532Z,5.63
2023-05-22T03:34:16.637Z,4.32
2023-05-22T03:36:46.726Z,3.55
2023-05-22T03:39:16.540Z,3.90
2023-05-22T03:41:53.058Z,3.70
2023-05-22T03:44:21.157Z,3.40
2023-05-22T03:46:48.732Z,3.67
2023-05-22T03:49:16.331Z,3.50
2023-05-22T03:51:43.808Z,3.78
2023-05-22T03:54:11.484Z,3.40
2023-05-22T03:56:38.975Z,4.40
2023-05-22T03:59:06.489Z,3.28
2023-05-22T04:01:33.991Z,4.00
2023-05-22T04:04:02.112Z,3.60
2023-05-22T04:06:32.975Z,4.47
2023-05-22T04:09:01.191Z,3.53
2023-05-22T04:11:30.613Z,3.58
2023-05-22T04:14:03.624Z,4.28
2023-05-22T04:16:31.533Z,5.85
2023-05-22T04:18:59.377Z,4.20
2023-05-22T04:21:28.393Z,3.40
2023-05-22T04:23:55.913Z,3.95
2023-05-22T04:26:26.073Z,4.05
2023-05-22T04:28:54.588Z,3.65
2023-05-22T04:31:23.222Z,3.47
2023-05-22T04:33:50.901Z,3.15
2023-05-22T04:36:22.292Z,2.90
2023-05-22T04:38:51.045Z,3.47
2023-05-22T04:41:19.626Z,2.97
2023-05-22T04:43:50.817Z,3.35
2023-05-22T04:46:19.791Z,2.38
2023-05-22T04:48:47.379Z,3.08
2023-05-22T04:51:16.519Z,3.00
2023-05-22T04:53:44.373Z,2.70
2023-05-22T04:56:14.619Z,4.28
2023-05-22T04:58:44.147Z,3.47
2023-05-22T05:01:11.687Z,2.85
2023-05-22T05:03:39.902Z,2.15
2023-05-22T05:06:08.464Z,2.60
2023-05-22T05:08:36.128Z,3.85
2023-05-22T05:11:04.447Z,3.17
2023-05-22T05:13:32.069Z,3.78
2023-05-22T05:16:00.532Z,3.53
2023-05-22T05:18:28.325Z,3.00
2023-05-22T05:20:55.921Z,4.40
2023-05-22T05:23:23.521Z,3.40
2023-05-22T05:25:51.130Z,3.90
2023-05-22T05:28:18.823Z,3.45
2023-05-22T05:30:46.512Z,3.90
2023-05-22T05:33:34.232Z,4.53
2023-05-22T05:36:31.690Z,4.88
2023-05-22T05:38:59.464Z,3.58
2023-05-22T05:41:27.596Z,4.03
2023-05-22T05:44:03.367Z,2.70
2023-05-22T05:46:33.306Z,2.55
2023-05-22T05:49:02.027Z,1.98
2023-05-22T05:51:29.661Z,1.85
2023-05-22T05:53:57.259Z,2.25
2023-05-22T05:56:25.768Z,1.90
2023-05-22T05:58:53.329Z,2.20
2023-05-22T06:01:39.910Z,1.67
2023-05-22T06:04:14.153Z,1.58
2023-05-22T06:06:42.558Z,2.30
2023-05-22T06:09:10.427Z,1.77
2023-05-22T06:11:56.630Z,2.00
2023-05-22T06:14:25.120Z,1.42
2023-05-22T06:16:52.697Z,1.98
2023-05-22T06:19:21.038Z,2.65
2023-05-22T06:21:50.258Z,2.10
2023-05-22T06:24:19.385Z,1.88
2023-05-22T06:26:46.957Z,2.20
2023-05-22T06:29:15.168Z,1.85
2023-05-22T06:31:43.006Z,1.90
2023-05-22T06:34:10.822Z,1.98
2023-05-22T06:36:38.409Z,2.80
2023-05-22T06:39:05.964Z,2.75
2023-05-22T06:41:51.958Z,2.40
2023-05-22T06:44:20.303Z,2.58
2023-05-22T06:46:54.156Z,2.20
2023-05-22T06:49:24.740Z,2.03
2023-05-22T06:51:54.813Z,2.33
2023-05-22T06:54:23.000Z,2.17
2023-05-22T06:56:57.558Z,2.38
2023-05-22T06:59:27.720Z,2.22
2023-05-22T07:02:08.262Z,2.47
2023-05-22T07:04:58.356Z,1.75
2023-05-22T07:07:33.650Z,2.10
2023-05-22T07:10:01.257Z,2.05
2023-05-22T07:12:29.772Z,1.98
2023-05-22T07:15:54.868Z,1.88
2023-05-22T07:18:23.902Z,2.42
2023-05-22T07:20:51.919Z,2.40
2023-05-22T07:23:22.057Z,2.30
2023-05-22T07:25:50.956Z,2.50
2023-05-22T07:28:21.598Z,2.03
2023-05-22T07:30:55.202Z,2.33
2023-05-22T07:33:22.972Z,2.25
2023-05-22T07:35:51.905Z,2.00
2023-05-22T07:38:20.021Z,2.28
2023-05-22T07:40:56.946Z,2.33
2023-05-22T07:43:26.114Z,2.13
2023-05-22T07:45:54.295Z,1.92
2023-05-22T07:48:25.628Z,1.88
2023-05-22T07:50:53.238Z,2.50
2023-05-22T07:53:20.941Z,1.98
2023-05-22T07:55:51.324Z,1.83
2023-05-22T07:58:19.734Z,2.03
2023-05-22T08:00:48.241Z,2.45
2023-05-22T08:03:17.754Z,1.95
2023-05-22T08:05:46.442Z,2.20
2023-05-22T08:08:14.078Z,1.83
2023-05-22T08:11:01.867Z,1.92
2023-05-22T08:13:29.648Z,1.77
2023-05-22T08:16:00.110Z,2.00
2023-05-22T08:18:29.564Z,2.28
2023-05-22T08:20:57.672Z,2.22
2023-05-22T08:23:25.381Z,2.22
2023-05-22T08:25:52.817Z,1.80
2023-05-22T08:28:20.373Z,2.22
2023-05-22T08:30:48.064Z,1.70
2023-05-22T08:33:15.578Z,1.92
2023-05-22T08:35:43.073Z,1.80
2023-05-22T08:38:10.639Z,2.00
2023-05-22T08:40:40.782Z,1.80
2023-05-22T08:43:09.653Z,2.03
2023-05-22T08:45:37.734Z,1.83
2023-05-22T08:48:06.322Z,1.77
2023-05-22T08:50:40.046Z,1.85
2023-05-22T08:53:11.457Z,1.95
2023-05-22T08:55:39.465Z,1.70
2023-05-22T08:58:08.534Z,2.30
2023-05-22T09:00:36.445Z,1.40
2023-05-22T09:03:06.758Z,1.60
2023-05-22T09:05:34.489Z,1.83
2023-05-22T09:08:16.046Z,1.50
2023-05-22T09:10:44.271Z,2.10
2023-05-22T09:13:23.209Z,2.45
2023-05-22T09:15:50.750Z,1.65
2023-05-22T09:18:18.329Z,2.00
2023-05-22T09:20:46.007Z,1.90
2023-05-22T09:23:17.791Z,2.17
2023-05-22T09:25:46.560Z,2.00
2023-05-22T09:28:14.365Z,1.60
2023-05-22T09:30:42.620Z,1.90
2023-05-22T09:33:14.299Z,1.63
2023-05-22T09:35:42.297Z,2.10
2023-05-22T09:38:12.309Z,2.20
2023-05-22T09:40:41.263Z,1.60
2023-05-22T09:43:09.961Z,1.63
2023-05-22T09:45:38.953Z,2.05
2023-05-22T09:48:08.667Z,1.67
2023-05-22T09:50:37.205Z,1.80
2023-05-22T09:53:05.834Z,2.00
2023-05-22T09:55:34.844Z,2.00
2023-05-22T09:58:05.424Z,1.65
2023-05-22T10:00:35.292Z,1.42
2023-05-22T10:03:09.110Z,1.60
2023-05-22T10:05:40.974Z,2.17
2023-05-22T10:08:15.035Z,1.70
2023-05-22T10:10:46.483Z,2.08
2023-05-22T10:13:15.077Z,1.90
2023-05-22T10:15:43.252Z,1.58
2023-05-22T10:18:11.841Z,1.58
2023-05-22T10:20:39.834Z,1.55
2023-05-22T10:23:09.453Z,0.90
2023-05-22T10:25:39.927Z,2.03
2023-05-22T10:28:08.832Z,1.63
2023-05-22T10:31:11.256Z,1.67
2023-05-22T10:34:01.612Z,1.45
2023-05-22T10:36:58.153Z,2.10
2023-05-22T10:39:54.588Z,1.90
2023-05-22T10:42:22.182Z,2.17
2023-05-22T10:44:50.068Z,1.70
2023-05-22T10:47:17.794Z,1.60
2023-05-22T10:49:45.571Z,1.58
2023-05-22T10:52:18.514Z,1.70
2023-05-22T10:54:49.221Z,1.90
2023-05-22T10:57:17.831Z,1.73
2023-05-22T10:59:47.839Z,1.67
2023-05-22T11:02:29.346Z,1.67
2023-05-22T11:05:18.939Z,1.88
2023-05-22T11:07:46.511Z,1.88
2023-05-22T11:10:14.078Z,2.00
2023-05-22T11:12:41.754Z,1.92
2023-05-22T11:15:10.528Z,1.77
2023-05-22T11:17:51.494Z,1.90
2023-05-22T11:20:28.419Z,1.45
2023-05-22T11:23:08.267Z,2.05
2023-05-22T11:25:37.592Z,2.08
2023-05-22T11:28:06.256Z,1.70
2023-05-22T11:30:35.177Z,1.65
2023-05-22T11:33:03.254Z,2.17
2023-05-22T11:35:31.405Z,1.77
2023-05-22T11:37:58.999Z,1.48
2023-05-22T11:40:29.602Z,1.60
2023-05-22T11:42:57.612Z,1.70
2023-05-22T11:45:25.933Z,1.88
2023-05-22T11:47:53.575Z,1.80
2023-05-22T11:50:40.286Z,1.55
2023-05-22T11:53:09.557Z,1.70
2023-05-22T11:55:37.020Z,1.40
2023-05-22T11:58:04.610Z,1.33
2023-05-22T12:00:32.546Z,1.45
2023-05-22T12:03:00.358Z,1.60
2023-05-22T12:05:28.206Z,1.98
2023-05-22T12:07:56.028Z,1.63
2023-05-22T12:10:25.468Z,1.40
2023-05-22T12:12:53.036Z,2.05
2023-05-22T12:15:21.241Z,1.83
2023-05-22T12:17:48.952Z,1.50
2023-05-22T12:20:16.800Z,1.73
2023-05-22T12:22:44.487Z,1.92
2023-05-22T12:25:20.060Z,1.88
2023-05-22T12:27:47.983Z,1.98
2023-05-22T12:30:16.925Z,1.70
2023-05-22T12:32:49.351Z,1.70
2023-05-22T12:35:18.282Z,1.80
2023-05-22T12:37:50.777Z,1.70
2023-05-22T12:40:18.606Z,2.05
2023-05-22T12:42:46.303Z,2.00
2023-05-22T12:45:14.133Z,2.00
2023-05-22T12:47:41.741Z,1.73
2023-05-22T12:50:09.523Z,1.80
2023-05-22T12:52:37.091Z,1.55
2023-05-22T12:55:04.924Z,1.75
2023-05-22T12:57:32.474Z,1.85
2023-05-22T13:00:00.099Z,2.00
2023-05-22T13:02:27.727Z,1.60
2023-05-22T13:04:55.399Z,1.88
2023-05-22T13:07:22.932Z,1.65
2023-05-22T13:09:50.531Z,1.80
2023-05-22T13:12:19.421Z,1.70
2023-05-22T13:14:47.185Z,1.85
2023-05-22T13:17:14.715Z,1.58
2023-05-22T13:19:42.293Z,1.60
2023-05-22T13:22:09.873Z,2.00
2023-05-22T13:24:37.387Z,1.95
2023-05-22T13:27:04.990Z,2.15
2023-05-22T13:29:33.298Z,1.77
2023-05-22T13:32:01.527Z,1.40
2023-05-22T13:34:29.752Z,1.90
2023-05-22T13:36:57.483Z,1.98
2023-05-22T13:39:25.081Z,1.70
2023-05-22T13:41:53.369Z,1.70
2023-05-22T13:44:21.422Z,1.90
2023-05-22T13:46:49.253Z,1.90
2023-05-22T13:49:16.975Z,1.60
2023-05-22T13:51:44.573Z,1.70
2023-05-22T13:54:12.196Z,1.52
2023-05-22T13:56:39.639Z,1.40
2023-05-22T13:59:09.224Z,1.63
2023-05-22T14:01:37.058Z,1.67
2023-05-22T14:04:05.269Z,1.48
2023-05-22T14:06:33.204Z,1.40
2023-05-22T14:09:00.967Z,1.23
2023-05-22T14:11:28.539Z,1.35
2023-05-22T14:13:56.177Z,1.70
2023-05-22T14:16:23.838Z,1.50
2023-05-22T14:18:51.585Z,1.88
2023-05-22T14:21:19.623Z,2.15
2023-05-22T14:23:47.286Z,1.63
2023-05-22T14:26:15.323Z,1.98
2023-05-22T14:28:43.345Z,1.75
2023-05-22T14:31:10.960Z,1.45
2023-05-22T14:33:38.519Z,1.38
2023-05-22T14:36:06.391Z,1.77
2023-05-22T14:38:34.498Z,2.42
2023-05-22T14:41:02.461Z,2.13
2023-05-22T14:43:30.097Z,1.60
2023-05-22T14:45:59.209Z,1.80
2023-05-22T14:48:29.332Z,2.00
2023-05-22T14:50:57.429Z,1.92
2023-05-22T14:53:25.066Z,1.90
2023-05-22T14:55:52.720Z,1.60
2023-05-22T14:58:20.283Z,1.90
2023-05-22T15:00:47.759Z,2.00
2023-05-22T15:03:15.353Z,1.70
2023-05-22T15:05:42.909Z,1.77
2023-05-22T15:08:10.633Z,2.10
2023-05-22T15:10:40.392Z,2.00
2023-05-22T15:13:07.975Z,2.10
2023-05-22T15:15:35.517Z,2.30
2023-05-22T15:18:04.942Z,2.08
2023-05-22T15:20:32.589Z,2.03
2023-05-22T15:23:00.654Z,2.08
2023-05-22T15:25:28.368Z,2.30
2023-05-22T15:27:55.972Z,2.40
2023-05-22T15:30:23.750Z,2.13
2023-05-22T15:32:51.373Z,2.33
2023-05-22T15:35:19.131Z,2.20
2023-05-22T15:37:46.670Z,1.90
2023-05-22T15:40:17.431Z,2.10
2023-05-22T15:42:45.070Z,1.92
2023-05-22T15:45:12.589Z,1.92
2023-05-22T15:47:40.107Z,2.00
2023-05-22T15:50:07.924Z,2.13
2023-05-22T15:52:35.676Z,2.17
2023-05-22T15:55:03.329Z,2.30
2023-05-22T15:57:30.969Z,2.38
2023-05-22T15:59:58.578Z,1.92
2023-05-22T16:02:26.793Z,1.95
2023-05-22T16:04:54.657Z,1.83
2023-05-22T16:07:22.476Z,2.42
2023-05-22T16:09:50.487Z,2.47
2023-05-22T16:12:18.544Z,2.20
2023-05-22T16:14:46.147Z,2.15
2023-05-22T16:17:13.882Z,1.80
2023-05-22T16:19:41.601Z,1.80
2023-05-22T16:22:10.008Z,1.80
2023-05-22T16:24:37.725Z,2.28
2023-05-22T16:27:05.601Z,3.05
2023-05-22T16:29:33.393Z,5.55
2023-05-22T16:32:01.361Z,3.70
2023-05-22T16:34:30.040Z,2.40
2023-05-22T16:36:57.810Z,2.40
2023-05-22T16:39:26.806Z,2.25
2023-05-22T16:41:54.326Z,2.00
2023-05-22T16:44:21.916Z,2.00
2023-05-22T16:46:49.942Z,2.30
2023-05-22T16:49:17.500Z,1.90
2023-05-22T16:51:45.117Z,2.17
2023-05-22T16:54:12.788Z,2.20
2023-05-22T16:56:40.569Z,1.85
2023-05-22T16:59:08.143Z,1.92
2023-05-22T17:01:36.170Z,2.22
2023-05-22T17:04:03.873Z,2.20
2023-05-22T17:06:31.866Z,2.45
2023-05-22T17:08:59.565Z,2.25
2023-05-22T17:11:27.371Z,1.95
2023-05-22T17:13:54.974Z,2.40
2023-05-22T17:16:22.563Z,2.20
2023-05-22T17:18:50.784Z,2.17
2023-05-22T17:21:20.682Z,1.95
2023-05-22T17:23:48.652Z,1.95
2023-05-22T17:26:16.643Z,1.70
2023-05-22T17:28:44.679Z,1.60
2023-05-22T17:31:12.216Z,1.75
2023-05-22T17:33:39.947Z,2.08
2023-05-22T17:36:07.689Z,2.30
2023-05-22T17:38:35.363Z,1.75
2023-05-22T17:41:02.860Z,1.60
2023-05-22T17:43:30.515Z,1.70
2023-05-22T17:45:58.508Z,1.70
2023-05-22T17:48:27.196Z,1.50
2023-05-22T17:50:55.394Z,2.05
2023-05-22T17:53:23.146Z,2.13
2023-05-22T17:55:52.547Z,1.80
2023-05-22T17:58:21.089Z,1.80
2023-05-22T18:00:49.224Z,1.83
2023-05-22T18:03:21.294Z,2.35
2023-05-22T18:05:49.597Z,2.22
2023-05-22T18:08:17.954Z,2.20
2023-05-22T18:10:45.500Z,2.17
2023-05-22T18:13:13.105Z,2.33
2023-05-22T18:15:40.983Z,2.55
2023-05-22T18:18:10.010Z,2.40
2023-05-22T18:20:39.267Z,1.80
2023-05-22T18:23:07.042Z,2.42
2023-05-22T18:25:34.563Z,2.40
2023-05-22T18:28:02.168Z,2.35
2023-05-22T18:30:29.783Z,3.20
2023-05-22T18:32:57.402Z,2.85
2023-05-22T18:35:25.062Z,2.10
2023-05-22T18:37:52.573Z,1.80
2023-05-22T18:40:20.188Z,2.47
2023-05-22T18:42:47.632Z,2.75
2023-05-22T18:45:15.316Z,2.30
2023-05-22T18:47:42.841Z,2.38
2023-05-22T18:50:11.008Z,2.20
2023-05-22T18:52:39.998Z,2.33
2023-05-22T18:55:07.786Z,2.10
2023-05-22T18:57:35.335Z,2.20
2023-05-22T19:00:02.928Z,2.20
2023-05-22T19:02:30.517Z,2.25
2023-05-22T19:04:58.143Z,2.38
2023-05-22T19:07:25.722Z,2.25
2023-05-22T19:09:53.380Z,2.65
2023-05-22T19:12:21.013Z,2.50
2023-05-22T19:14:48.539Z,2.83
2023-05-22T19:17:16.234Z,2.17
2023-05-22T19:19:43.892Z,2.25
2023-05-22T19:22:11.658Z,2.35
2023-05-22T19:24:39.250Z,2.70
2023-05-22T19:27:06.944Z,2.60
2023-05-22T19:29:34.499Z,2.58
2023-05-22T19:32:02.108Z,2.20
2023-05-22T19:34:29.593Z,3.05
2023-05-22T19:36:57.943Z,2.30
2023-05-22T19:39:25.960Z,3.08
2023-05-22T19:41:54.586Z,2.45
2023-05-22T19:44:22.499Z,2.53
2023-05-22T19:46:50.235Z,2.80
2023-05-22T19:49:17.810Z,2.40
2023-05-22T19:51:46.181Z,2.40
2023-05-22T19:54:13.844Z,2.60
2023-05-22T19:56:41.419Z,2.95
2023-05-22T19:59:08.864Z,2.20
2023-05-22T20:01:36.680Z,2.15
2023-05-22T20:04:04.380Z,2.17
2023-05-22T20:06:33.661Z,2.67
2023-05-22T20:09:01.993Z,1.92
2023-05-22T20:11:29.952Z,2.13
2023-05-22T20:13:57.725Z,2.05
2023-05-22T20:16:29.158Z,2.67
2023-05-22T20:18:57.238Z,2.47
2023-05-22T20:21:24.887Z,2.70
2023-05-22T20:23:52.994Z,1.90
2023-05-22T20:26:20.612Z,2.63
2023-05-22T20:28:48.215Z,1.60
2023-05-22T20:31:16.122Z,2.30
2023-05-22T20:33:43.911Z,2.15
2023-05-22T20:36:12.100Z,2.80
2023-05-22T20:38:42.616Z,2.30
2023-05-22T20:41:12.947Z,2.70
2023-05-22T20:43:43.424Z,1.98
2023-05-22T20:46:11.369Z,2.00
2023-05-22T20:48:38.886Z,2.13
2023-05-22T20:51:06.667Z,2.22
2023-05-22T20:53:34.236Z,2.65
2023-05-22T20:56:02.226Z,2.28
2023-05-22T20:58:29.966Z,2.83
2023-05-22T21:00:57.797Z,2.10
2023-05-22T21:03:26.068Z,3.05
2023-05-22T21:05:53.933Z,2.78
2023-05-22T21:08:21.657Z,2.30
2023-05-22T21:10:49.369Z,2.22
2023-05-22T21:13:16.895Z,2.38
2023-05-22T21:15:44.376Z,3.13
2023-05-22T21:18:12.181Z,2.85
2023-05-22T21:20:40.043Z,3.17
2023-05-22T21:23:07.922Z,3.20
2023-05-22T21:25:36.492Z,3.15
2023-05-22T21:28:04.267Z,2.95
2023-05-22T21:30:31.946Z,2.80
2023-05-22T21:32:59.675Z,3.00
2023-05-22T21:35:27.259Z,2.90
2023-05-22T21:37:54.794Z,2.78
2023-05-22T21:40:22.512Z,2.80
2023-05-22T21:42:50.110Z,3.63
2023-05-22T21:45:17.657Z,2.33
2023-05-22T21:47:45.307Z,2.20
2023-05-22T21:50:12.848Z,2.33
2023-05-22T21:52:40.510Z,2.15
2023-05-22T21:55:08.538Z,2.38
2023-05-22T21:57:36.547Z,2.58
2023-05-22T22:00:04.569Z,2.08
2023-05-22T22:02:32.637Z,2.35
2023-05-22T22:05:00.246Z,1.75
2023-05-22T22:07:27.862Z,2.10
2023-05-22T22:09:55.517Z,2.42
2023-05-22T22:12:23.084Z,2.20
2023-05-22T22:14:50.651Z,2.00
2023-05-22T22:17:18.149Z,2.10
2023-05-22T22:19:45.651Z,2.25
2023-05-22T22:22:13.105Z,2.28
2023-05-22T22:24:40.969Z,2.55
2023-05-22T22:27:08.541Z,2.90
2023-05-22T22:29:36.252Z,2.30
2023-05-22T22:32:04.029Z,2.90
2023-05-22T22:34:31.578Z,2.60
2023-05-22T22:36:59.063Z,1.92
2023-05-22T22:39:26.643Z,2.47
2023-05-22T22:41:54.324Z,1.90
2023-05-22T22:44:21.902Z,2.47
2023-05-22T22:46:49.732Z,2.25
2023-05-22T22:49:17.603Z,3.15
2023-05-22T22:51:45.154Z,2.28
2023-05-22T22:54:15.250Z,2.00
2023-05-22T22:56:43.285Z,2.60
2023-05-22T22:59:10.771Z,2.40
2023-05-22T23:01:38.396Z,2.63
2023-05-22T23:04:05.963Z,2.30
2023-05-22T23:06:34.688Z,2.50
2023-05-22T23:11:37.464Z,2.83
2023-05-22T23:14:07.831Z,2.67
2023-05-22T23:16:42.210Z,2.25
2023-05-22T23:19:11.519Z,3.20
2023-05-22T23:21:39.073Z,2.45
2023-05-22T23:24:06.991Z,3.28
2023-05-22T23:26:34.676Z,2.75
2023-05-22T23:29:02.453Z,3.20
2023-05-22T23:31:32.900Z,3.15
2023-05-22T23:34:00.466Z,2.60
2023-05-22T23:36:29.011Z,2.78
2023-05-22T23:38:56.541Z,2.90
2023-05-22T23:41:24.943Z,2.60
2023-05-22T23:43:52.485Z,2.95
2023-05-22T23:46:21.300Z,3.03
2023-05-22T23:48:48.958Z,3.92
2023-05-22T23:51:17.028Z,2.83
2023-05-22T23:53:44.833Z,3.20
2023-05-22T23:56:12.352Z,2.38
2023-05-22T23:58:40.173Z,2.17
